createdAt,value
2023-04-23T00:01:59.603Z,22.70
2023-04-23T00:04:29.017Z,25.00
2023-04-23T00:06:58.106Z,22.50
2023-04-23T00:09:30.215Z,21.90
2023-04-23T00:11:58.822Z,22.10
2023-04-23T00:14:26.935Z,22.50
2023-04-23T00:16:55.113Z,20.20
2023-04-23T00:19:23.433Z,20.50
2023-04-23T00:21:51.595Z,18.70
2023-04-23T00:24:20.444Z,17.20
2023-04-23T00:26:48.307Z,15.90
2023-04-23T00:29:16.095Z,17.20
2023-04-23T00:31:44.117Z,16.20
2023-04-23T00:34:12.601Z,17.70
2023-04-23T00:36:40.609Z,16.50
2023-04-23T00:39:08.609Z,17.30
2023-04-23T00:41:36.363Z,17.10
2023-04-23T00:44:04.757Z,17.10
2023-04-23T00:46:32.703Z,16.80
2023-04-23T00:49:01.637Z,17.50
2023-04-23T00:51:30.218Z,16.90
2023-04-23T00:53:58.342Z,16.80
2023-04-23T00:56:27.407Z,16.20
2023-04-23T00:58:55.446Z,16.10
2023-04-23T01:01:23.825Z,15.90
2023-04-23T01:03:53.780Z,16.70
2023-04-23T01:06:25.149Z,15.90
2023-04-23T01:08:53.175Z,15.70
2023-04-23T01:11:21.109Z,17.40
2023-04-23T01:13:48.982Z,18.00
2023-04-23T01:16:17.640Z,16.00
2023-04-23T01:18:46.034Z,17.40
2023-04-23T01:21:15.252Z,16.50
2023-04-23T01:23:43.375Z,15.10
2023-04-23T01:26:11.590Z,18.10
2023-04-23T01:28:39.603Z,18.40
2023-04-23T01:31:14.424Z,17.00
2023-04-23T01:33:43.269Z,16.90
2023-04-23T01:36:12.363Z,18.10
2023-04-23T01:38:41.002Z,17.10
2023-04-23T01:41:09.308Z,17.50
2023-04-23T01:43:38.240Z,16.40
2023-04-23T01:46:06.499Z,16.50
2023-04-23T01:48:35.232Z,16.50
2023-04-23T01:51:05.813Z,16.60
2023-04-23T01:53:33.590Z,16.10
2023-04-23T01:56:02.909Z,16.40
2023-04-23T01:58:31.134Z,16.40
2023-04-23T02:00:59.090Z,16.70
2023-04-23T02:03:32.077Z,18.20
2023-04-23T02:06:00.949Z,19.60
2023-04-23T02:08:28.754Z,19.20
2023-04-23T02:10:57.359Z,18.90
2023-04-23T02:13:25.867Z,17.30
2023-04-23T02:15:53.885Z,16.70
2023-04-23T02:18:21.759Z,17.00
2023-04-23T02:20:49.645Z,16.70
2023-04-23T02:23:17.526Z,17.00
2023-04-23T02:25:46.184Z,17.90
2023-04-23T02:28:14.748Z,18.70
2023-04-23T02:30:47.966Z,18.60
2023-04-23T02:33:16.150Z,19.60
2023-04-23T02:35:44.041Z,23.60
2023-04-23T02:38:11.818Z,24.20
2023-04-23T02:40:40.300Z,25.40
2023-04-23T02:43:08.772Z,26.90
2023-04-23T02:45:36.851Z,30.40
2023-04-23T02:48:04.917Z,26.80
2023-04-23T02:50:32.810Z,27.80
2023-04-23T02:53:00.730Z,27.20
2023-04-23T02:55:32.050Z,30.30
2023-04-23T02:58:00.650Z,28.70
2023-04-23T03:00:28.918Z,30.70
2023-04-23T03:02:57.391Z,31.60
2023-04-23T03:05:25.414Z,30.20
2023-04-23T03:07:54.025Z,33.70
2023-04-23T03:10:21.937Z,33.80
2023-04-23T03:12:50.047Z,30.10
2023-04-23T03:15:18.179Z,28.00
2023-04-23T03:17:46.068Z,28.80
2023-04-23T03:20:14.731Z,27.20
2023-04-23T03:22:42.591Z,27.90
2023-04-23T03:25:10.488Z,27.90
2023-04-23T03:27:40.742Z,26.30
2023-04-23T03:30:09.556Z,25.50
2023-04-23T03:32:37.404Z,26.80
2023-04-23T03:35:05.820Z,26.30
2023-04-23T03:37:33.630Z,26.00
2023-04-23T03:40:07.152Z,27.70
2023-04-23T03:42:35.983Z,25.20
2023-04-23T03:45:04.617Z,27.30
2023-04-23T03:47:32.488Z,27.50
2023-04-23T03:50:01.103Z,28.00
2023-04-23T03:52:36.877Z,28.90
2023-04-23T03:55:05.819Z,27.50
2023-04-23T03:57:34.072Z,29.90
2023-04-23T04:00:02.848Z,30.00
2023-04-23T04:02:31.116Z,29.70
2023-04-23T04:05:00.103Z,28.00
2023-04-23T04:07:28.812Z,27.30
2023-04-23T04:09:56.653Z,27.10
2023-04-23T04:12:24.522Z,27.50
2023-04-23T04:14:52.313Z,26.90
2023-04-23T04:17:20.813Z,28.10
2023-04-23T04:19:48.666Z,26.80
2023-04-23T04:22:16.837Z,25.90
2023-04-23T04:24:47.735Z,26.10
2023-04-23T04:27:15.933Z,26.40
2023-04-23T04:29:44.821Z,30.50
2023-04-23T04:32:13.888Z,28.70
2023-04-23T04:34:41.956Z,27.90
2023-04-23T04:37:11.548Z,27.60
2023-04-23T04:39:39.419Z,28.60
2023-04-23T04:42:08.056Z,23.40
2023-04-23T04:44:37.852Z,20.70
2023-04-23T04:47:08.240Z,18.10
2023-04-23T04:49:36.300Z,12.00
2023-04-23T04:52:04.165Z,10.70
2023-04-23T04:54:32.781Z,8.90
2023-04-23T04:57:02.430Z,8.40
2023-04-23T04:59:30.365Z,8.70
2023-04-23T05:01:58.972Z,8.40
2023-04-23T05:04:26.860Z,8.40
2023-04-23T05:06:54.942Z,8.50
2023-04-23T05:09:23.426Z,8.60
2023-04-23T05:11:51.994Z,11.10
2023-04-23T05:14:19.793Z,8.20
2023-04-23T05:16:47.652Z,8.80
2023-04-23T05:19:15.601Z,7.70
2023-04-23T05:21:43.822Z,8.90
2023-04-23T05:24:12.332Z,8.90
2023-04-23T05:26:40.533Z,8.70
2023-04-23T05:29:08.289Z,8.10
2023-04-23T05:31:36.478Z,8.90
2023-04-23T05:34:04.340Z,8.20
2023-04-23T05:36:32.356Z,7.80
2023-04-23T05:39:00.855Z,8.30
2023-04-23T05:41:28.803Z,8.10
2023-04-23T05:43:56.598Z,7.20
2023-04-23T05:46:24.609Z,7.10
2023-04-23T05:48:53.766Z,7.50
2023-04-23T05:51:22.317Z,7.70
2023-04-23T05:53:50.901Z,7.70
2023-04-23T05:56:18.782Z,6.90
2023-04-23T05:58:46.912Z,7.20
2023-04-23T06:01:14.818Z,7.00
2023-04-23T06:03:46.052Z,6.60
2023-04-23T06:06:14.419Z,7.10
2023-04-23T06:08:42.768Z,7.40
2023-04-23T06:11:10.561Z,7.30
2023-04-23T06:13:43.081Z,6.70
2023-04-23T06:16:11.618Z,7.20
2023-04-23T06:18:39.802Z,7.30
2023-04-23T06:21:08.824Z,7.30
2023-04-23T06:23:36.956Z,6.70
2023-04-23T06:26:05.638Z,6.70
2023-04-23T06:28:33.557Z,6.70
2023-04-23T06:31:02.771Z,6.40
2023-04-23T06:33:31.391Z,6.90
2023-04-23T06:35:59.232Z,6.30
2023-04-23T06:38:27.042Z,6.40
2023-04-23T06:41:00.368Z,6.50
2023-04-23T06:43:31.301Z,6.10
2023-04-23T06:45:59.189Z,5.80
2023-04-23T06:48:27.477Z,5.70
2023-04-23T06:50:55.528Z,5.90
2023-04-23T06:53:23.416Z,5.30
2023-04-23T06:55:51.640Z,5.20
2023-04-23T06:58:19.433Z,5.60
2023-04-23T07:00:47.361Z,5.60
2023-04-23T07:03:15.923Z,5.80
2023-04-23T07:05:43.876Z,5.20
2023-04-23T07:08:11.705Z,5.60
2023-04-23T07:10:39.553Z,5.20
2023-04-23T07:13:07.526Z,5.70
2023-04-23T07:15:35.750Z,5.40
2023-04-23T07:18:05.101Z,5.10
2023-04-23T07:20:33.295Z,5.80
2023-04-23T07:23:01.223Z,5.00
2023-04-23T07:25:28.974Z,5.50
2023-04-23T07:27:57.259Z,5.10
2023-04-23T07:30:26.561Z,5.40
2023-04-23T07:32:55.880Z,5.90
2023-04-23T07:35:23.836Z,5.60
2023-04-23T07:37:53.931Z,5.70
2023-04-23T07:40:22.598Z,5.70
2023-04-23T07:42:51.840Z,5.40
2023-04-23T07:45:20.132Z,5.60
2023-04-23T07:47:50.216Z,5.50
2023-04-23T07:50:18.008Z,5.40
2023-04-23T07:52:45.888Z,6.10
2023-04-23T07:55:13.680Z,5.80
2023-04-23T07:57:41.447Z,5.90
2023-04-23T08:00:11.379Z,6.20
2023-04-23T08:02:39.314Z,6.00
2023-04-23T08:05:08.370Z,5.60
2023-04-23T08:07:36.342Z,5.80
2023-04-23T08:10:06.238Z,5.80
2023-04-23T08:12:36.027Z,5.40
2023-04-23T08:15:04.921Z,5.50
2023-04-23T08:17:33.184Z,5.40
2023-04-23T08:20:01.490Z,5.40
2023-04-23T08:22:29.353Z,4.90
2023-04-23T08:24:57.164Z,6.20
2023-04-23T08:27:25.013Z,4.90
2023-04-23T08:29:52.790Z,5.40
2023-04-23T08:32:21.512Z,5.80
2023-04-23T08:34:49.377Z,5.40
2023-04-23T08:37:29.699Z,5.40
2023-04-23T08:39:58.525Z,5.30
2023-04-23T08:42:49.030Z,5.30
2023-04-23T08:45:18.260Z,5.10
2023-04-23T08:47:46.047Z,5.30
2023-04-23T08:50:20.205Z,5.50
2023-04-23T08:52:52.967Z,5.40
2023-04-23T08:55:22.856Z,5.70
2023-04-23T08:57:51.597Z,5.50
2023-04-23T09:00:21.596Z,5.40
2023-04-23T09:02:50.271Z,5.80
2023-04-23T09:05:18.579Z,5.60
2023-04-23T09:07:46.914Z,5.50
2023-04-23T09:10:18.402Z,5.50
2023-04-23T09:12:48.291Z,5.60
2023-04-23T09:15:17.148Z,5.70
2023-04-23T09:17:47.241Z,5.70
2023-04-23T09:20:15.632Z,5.40
2023-04-23T09:22:47.621Z,5.70
2023-04-23T09:25:18.306Z,5.20
2023-04-23T09:27:47.666Z,6.00
2023-04-23T09:30:16.836Z,5.70
2023-04-23T09:32:46.206Z,6.00
2023-04-23T09:35:22.284Z,6.00
2023-04-23T09:37:52.942Z,5.60
2023-04-23T09:40:24.022Z,5.40
2023-04-23T09:42:54.512Z,5.30
2023-04-23T09:45:25.770Z,5.20
2023-04-23T09:47:56.107Z,5.50
2023-04-23T09:50:35.446Z,5.70
2023-04-23T09:53:04.238Z,5.10
2023-04-23T09:55:43.039Z,5.90
2023-04-23T09:58:13.747Z,5.50
2023-04-23T10:00:42.828Z,5.10
2023-04-23T10:03:12.066Z,5.20
2023-04-23T10:08:14.557Z,5.40
2023-04-23T10:13:19.161Z,5.50
2023-04-23T10:15:48.802Z,5.60
2023-04-23T10:18:17.250Z,5.30
2023-04-23T10:20:45.596Z,5.20
2023-04-23T10:23:14.957Z,4.80
2023-04-23T10:25:42.867Z,5.00
2023-04-23T10:28:12.431Z,5.20
2023-04-23T10:30:42.844Z,5.20
2023-04-23T10:33:22.383Z,4.40
2023-04-23T10:35:58.152Z,5.20
2023-04-23T10:38:28.442Z,5.20
2023-04-23T10:40:58.882Z,5.10
2023-04-23T10:43:26.874Z,4.80
2023-04-23T10:45:54.635Z,5.30
2023-04-23T10:48:23.177Z,5.20
2023-04-23T10:51:17.449Z,4.90
2023-04-23T10:53:47.057Z,5.10
2023-04-23T10:56:16.343Z,5.00
2023-04-23T10:58:48.763Z,5.40
2023-04-23T11:01:18.112Z,5.40
2023-04-23T11:03:46.056Z,5.00
2023-04-23T11:06:20.306Z,5.40
2023-04-23T11:08:54.229Z,5.50
2023-04-23T11:11:40.378Z,5.20
2023-04-23T11:14:15.762Z,5.20
2023-04-23T11:16:43.825Z,4.80
2023-04-23T11:19:12.991Z,5.20
2023-04-23T11:22:01.187Z,5.10
2023-04-23T11:24:37.498Z,5.10
2023-04-23T11:27:07.432Z,5.50
2023-04-23T11:29:37.870Z,5.30
2023-04-23T11:32:10.741Z,4.90
2023-04-23T11:34:40.461Z,5.10
2023-04-23T11:37:13.677Z,5.70
2023-04-23T11:39:47.636Z,5.40
2023-04-23T11:42:17.621Z,5.10
2023-04-23T11:44:46.253Z,5.90
2023-04-23T11:47:19.209Z,4.90
2023-04-23T11:49:48.906Z,5.30
2023-04-23T11:52:17.475Z,4.90
2023-04-23T11:54:45.453Z,5.40
2023-04-23T11:57:14.637Z,6.20
2023-04-23T11:59:42.661Z,4.70
2023-04-23T12:02:10.826Z,5.50
2023-04-23T12:04:41.034Z,5.50
2023-04-23T12:07:19.633Z,5.30
2023-04-23T12:09:59.224Z,5.00
2023-04-23T12:12:34.663Z,4.80
2023-04-23T12:15:07.501Z,5.10
2023-04-23T12:17:36.177Z,5.20
2023-04-23T12:20:07.235Z,5.30
2023-04-23T12:22:35.034Z,5.30
2023-04-23T12:25:09.718Z,5.50
2023-04-23T12:27:42.674Z,5.40
2023-04-23T12:30:12.040Z,5.90
2023-04-23T12:32:41.405Z,5.30
2023-04-23T12:35:11.338Z,5.60
2023-04-23T12:37:39.165Z,5.20
2023-04-23T12:40:07.410Z,5.20
2023-04-23T12:42:36.453Z,5.00
2023-04-23T12:45:10.064Z,4.80
2023-04-23T12:47:38.001Z,5.30
2023-04-23T12:50:06.721Z,4.90
2023-04-23T12:52:34.566Z,4.90
2023-04-23T12:55:05.083Z,4.30
2023-04-23T12:57:33.473Z,5.00
2023-04-23T13:00:01.320Z,4.80
2023-04-23T13:02:29.476Z,4.80
2023-04-23T13:05:01.297Z,4.70
2023-04-23T13:07:29.332Z,4.70
2023-04-23T13:09:59.522Z,5.10
2023-04-23T13:12:27.994Z,5.10
2023-04-23T13:14:56.594Z,4.30
2023-04-23T13:17:26.549Z,5.40
2023-04-23T13:19:56.160Z,4.80
2023-04-23T13:22:28.700Z,4.60
2023-04-23T13:24:57.243Z,4.80
2023-04-23T13:27:27.369Z,5.30
2023-04-23T13:29:55.864Z,5.00
2023-04-23T13:32:32.075Z,4.80
2023-04-23T13:35:05.253Z,4.60
2023-04-23T13:37:33.883Z,4.70
2023-04-23T13:40:02.678Z,5.00
2023-04-23T13:42:30.495Z,5.00
2023-04-23T13:44:58.298Z,4.70
2023-04-23T13:47:30.577Z,4.70
2023-04-23T13:49:58.509Z,4.60
2023-04-23T13:52:27.192Z,4.90
2023-04-23T13:54:57.213Z,4.40
2023-04-23T13:57:25.357Z,4.90
2023-04-23T13:59:55.389Z,5.30
2023-04-23T14:02:24.203Z,4.50
2023-04-23T14:04:52.585Z,4.50
2023-04-23T14:07:21.346Z,4.80
2023-04-23T14:09:52.878Z,5.10
2023-04-23T14:12:21.073Z,4.70
2023-04-23T14:14:48.872Z,4.80
2023-04-23T14:17:16.670Z,4.40
2023-04-23T14:19:44.919Z,4.70
2023-04-23T14:22:13.552Z,4.90
2023-04-23T14:24:46.322Z,4.50
2023-04-23T14:27:14.083Z,4.70
2023-04-23T14:29:51.287Z,4.30
2023-04-23T14:32:19.619Z,4.70
2023-04-23T14:34:47.428Z,5.10
2023-04-23T14:37:17.237Z,4.40
2023-04-23T14:39:46.677Z,4.30
2023-04-23T14:42:14.593Z,4.80
2023-04-23T14:44:43.183Z,4.30
2023-04-23T14:47:11.971Z,5.10
2023-04-23T14:49:41.828Z,4.60
2023-04-23T14:52:10.642Z,4.50
2023-04-23T14:54:38.614Z,4.70
2023-04-23T14:57:07.041Z,4.70
2023-04-23T14:59:35.271Z,4.50
2023-04-23T15:02:03.497Z,4.50
2023-04-23T15:04:31.618Z,4.50
2023-04-23T15:06:59.538Z,5.00
2023-04-23T15:09:27.874Z,4.40
2023-04-23T15:11:56.250Z,4.30
2023-04-23T15:14:37.468Z,4.00
2023-04-23T15:17:05.236Z,4.30
2023-04-23T15:19:33.100Z,5.20
2023-04-23T15:22:01.367Z,4.60
2023-04-23T15:24:29.843Z,4.30
2023-04-23T15:26:59.445Z,4.60
2023-04-23T15:29:27.844Z,4.30
2023-04-23T15:31:58.474Z,4.40
2023-04-23T15:34:26.591Z,4.90
2023-04-23T15:36:55.418Z,4.90
2023-04-23T15:39:27.772Z,5.30
2023-04-23T15:41:57.316Z,5.30
2023-04-23T15:44:26.674Z,4.70
2023-04-23T15:47:01.314Z,5.40
2023-04-23T15:49:30.211Z,4.70
2023-04-23T15:51:59.121Z,4.40
2023-04-23T15:54:31.474Z,5.20
2023-04-23T15:57:03.862Z,4.60
2023-04-23T15:59:32.215Z,4.50
2023-04-23T16:02:00.325Z,4.80
2023-04-23T16:04:28.721Z,5.30
2023-04-23T16:07:02.976Z,4.90
2023-04-23T16:09:33.910Z,4.70
2023-04-23T16:12:02.654Z,4.30
2023-04-23T16:14:31.146Z,5.00
2023-04-23T16:16:59.156Z,6.00
2023-04-23T16:19:28.518Z,7.40
2023-04-23T16:21:56.508Z,9.40
2023-04-23T16:24:24.804Z,6.80
2023-04-23T16:26:52.597Z,5.50
2023-04-23T16:29:22.998Z,5.30
2023-04-23T16:31:51.248Z,4.90
2023-04-23T16:34:19.166Z,5.00
2023-04-23T16:36:47.439Z,4.70
2023-04-23T16:39:15.590Z,5.20
2023-04-23T16:41:44.253Z,5.10
2023-04-23T16:44:12.639Z,5.00
2023-04-23T16:46:42.595Z,5.00
2023-04-23T16:49:10.701Z,5.20
2023-04-23T16:51:39.357Z,4.60
2023-04-23T16:54:09.995Z,5.00
2023-04-23T16:56:38.578Z,4.70
2023-04-23T16:59:06.433Z,5.20
2023-04-23T17:01:34.389Z,4.70
2023-04-23T17:04:02.906Z,5.30
2023-04-23T17:06:32.473Z,4.80
2023-04-23T17:09:02.448Z,4.80
2023-04-23T17:11:31.671Z,5.00
2023-04-23T17:13:59.690Z,4.60
2023-04-23T17:16:27.937Z,5.50
2023-04-23T17:18:56.369Z,6.10
2023-04-23T17:21:24.802Z,6.60
2023-04-23T17:23:53.171Z,8.90
2023-04-23T17:26:21.543Z,7.30
2023-04-23T17:28:49.357Z,6.40
2023-04-23T17:31:18.220Z,5.60
2023-04-23T17:33:49.328Z,5.60
2023-04-23T17:36:17.695Z,5.30
2023-04-23T17:38:45.982Z,5.30
2023-04-23T17:41:14.378Z,5.50
2023-04-23T17:43:42.722Z,5.70
2023-04-23T17:46:10.620Z,5.30
2023-04-23T17:48:38.497Z,5.90
2023-04-23T17:51:06.745Z,5.60
2023-04-23T17:53:35.091Z,5.20
2023-04-23T17:56:03.458Z,5.80
2023-04-23T17:58:31.681Z,6.40
2023-04-23T18:00:59.643Z,6.80
2023-04-23T18:03:27.996Z,6.30
2023-04-23T18:05:56.115Z,8.90
2023-04-23T18:08:24.341Z,8.10
2023-04-23T18:10:52.695Z,6.50
2023-04-23T18:13:20.546Z,6.40
2023-04-23T18:15:50.142Z,6.20
2023-04-23T18:18:19.608Z,5.70
2023-04-23T18:20:47.694Z,6.40
2023-04-23T18:23:16.119Z,6.00
2023-04-23T18:25:44.681Z,6.40
2023-04-23T18:28:12.725Z,5.80
2023-04-23T18:30:40.724Z,7.10
2023-04-23T18:33:25.424Z,6.20
2023-04-23T18:35:59.451Z,7.20
2023-04-23T18:38:39.164Z,6.50
2023-04-23T18:41:06.958Z,5.90
2023-04-23T18:43:34.720Z,6.20
2023-04-23T18:46:03.935Z,6.80
2023-04-23T18:48:34.802Z,6.50
2023-04-23T18:51:33.370Z,6.90
2023-04-23T18:54:01.841Z,7.60
2023-04-23T18:56:33.975Z,7.10
2023-04-23T18:59:01.972Z,6.60
2023-04-23T19:01:46.146Z,6.70
2023-04-23T19:04:16.370Z,6.80
2023-04-23T19:06:44.842Z,7.70
2023-04-23T19:09:12.596Z,6.30
2023-04-23T19:11:40.614Z,7.30
2023-04-23T19:14:08.374Z,7.70
2023-04-23T19:16:36.351Z,7.40
2023-04-23T19:19:04.725Z,7.90
2023-04-23T19:21:32.585Z,7.70
2023-04-23T19:24:00.428Z,7.40
2023-04-23T19:26:28.320Z,7.30
2023-04-23T19:28:56.114Z,7.30
2023-04-23T19:31:24.128Z,7.60
2023-04-23T19:33:52.485Z,7.00
2023-04-23T19:36:21.061Z,7.00
2023-04-23T19:38:49.273Z,7.30
2023-04-23T19:41:17.079Z,7.10
2023-04-23T19:43:44.836Z,7.10
2023-04-23T19:46:12.757Z,8.50
2023-04-23T19:48:41.789Z,7.80
2023-04-23T19:51:10.166Z,6.80
2023-04-23T19:53:37.972Z,7.00
2023-04-23T19:56:08.716Z,7.10
2023-04-23T19:58:36.651Z,7.30
2023-04-23T20:01:04.922Z,7.10
2023-04-23T20:03:34.985Z,6.60
2023-04-23T20:06:02.890Z,7.40
2023-04-23T20:08:41.558Z,6.80
2023-04-23T20:11:13.472Z,7.00
2023-04-23T20:13:43.022Z,7.90
2023-04-23T20:16:12.445Z,7.10
2023-04-23T20:18:40.302Z,7.30
2023-04-23T20:21:09.352Z,7.00
2023-04-23T20:23:37.273Z,6.80
2023-04-23T20:26:07.519Z,7.40
2023-04-23T20:28:36.012Z,7.10
2023-04-23T20:31:03.832Z,6.60
2023-04-23T20:33:31.556Z,7.20
2023-04-23T20:36:01.671Z,8.00
2023-04-23T20:38:33.370Z,7.50
2023-04-23T20:41:02.639Z,7.20
2023-04-23T20:43:34.377Z,7.50
2023-04-23T20:46:03.099Z,7.40
2023-04-23T20:48:31.132Z,8.10
2023-04-23T20:50:59.597Z,6.70
2023-04-23T20:53:28.719Z,7.50
2023-04-23T20:55:57.197Z,7.00
2023-04-23T20:58:25.632Z,7.50
2023-04-23T21:00:54.248Z,7.40
2023-04-23T21:03:22.578Z,7.10
2023-04-23T21:05:50.974Z,8.10
2023-04-23T21:08:19.288Z,7.40
2023-04-23T21:10:47.594Z,7.30
2023-04-23T21:13:15.408Z,7.40
2023-04-23T21:15:44.834Z,7.10
2023-04-23T21:18:12.762Z,6.80
2023-04-23T21:20:41.029Z,7.60
2023-04-23T21:23:11.142Z,7.00
2023-04-23T21:25:39.868Z,8.00
2023-04-23T21:28:07.696Z,6.80
2023-04-23T21:30:52.127Z,7.00
2023-04-23T21:33:22.606Z,6.40
2023-04-23T21:35:51.648Z,6.80
2023-04-23T21:38:20.596Z,6.60
2023-04-23T21:40:48.624Z,6.70
2023-04-23T21:43:17.084Z,6.80
2023-04-23T21:45:45.528Z,6.60
2023-04-23T21:48:13.552Z,5.70
2023-04-23T21:50:41.418Z,6.60
2023-04-23T21:53:09.951Z,6.20
2023-04-23T21:55:38.164Z,6.00
2023-04-23T21:58:17.389Z,6.20
2023-04-23T22:00:46.164Z,6.50
2023-04-23T22:03:17.325Z,6.00
2023-04-23T22:05:52.528Z,6.00
2023-04-23T22:08:20.403Z,6.20
2023-04-23T22:10:48.216Z,6.30
2023-04-23T22:13:16.461Z,5.80
2023-04-23T22:15:44.461Z,5.60
2023-04-23T22:18:12.324Z,6.60
2023-04-23T22:20:40.705Z,6.60
2023-04-23T22:23:08.546Z,5.70
2023-04-23T22:25:36.320Z,5.80
2023-04-23T22:28:04.100Z,6.30
2023-04-23T22:30:31.872Z,6.20
2023-04-23T22:32:59.788Z,6.10
2023-04-23T22:35:27.987Z,6.10
2023-04-23T22:37:56.521Z,6.10
2023-04-23T22:40:24.557Z,5.90
2023-04-23T22:42:52.384Z,6.20
2023-04-23T22:45:20.182Z,5.80
2023-04-23T22:47:48.448Z,5.60
2023-04-23T22:50:16.446Z,6.40
2023-04-23T22:52:44.850Z,5.80
2023-04-23T22:55:13.024Z,5.80
2023-04-23T22:57:41.026Z,6.10
2023-04-23T23:00:11.398Z,5.90
2023-04-23T23:02:39.299Z,5.70
2023-04-23T23:05:07.534Z,6.50
2023-04-23T23:07:35.297Z,6.30
2023-04-23T23:10:03.906Z,6.70
2023-04-23T23:12:31.791Z,6.80
2023-04-23T23:15:00.006Z,6.60
2023-04-23T23:17:27.872Z,6.20
2023-04-23T23:19:55.739Z,6.10
2023-04-23T23:22:23.569Z,6.30
2023-04-23T23:24:51.372Z,6.30
2023-04-23T23:27:19.213Z,5.90
2023-04-23T23:29:47.512Z,5.40
2023-04-23T23:32:15.340Z,5.70
2023-04-23T23:34:43.252Z,6.20
2023-04-23T23:37:11.363Z,7.00
2023-04-23T23:39:39.189Z,6.00
2023-04-23T23:42:06.966Z,6.90
2023-04-23T23:44:36.383Z,5.80
2023-04-23T23:47:04.310Z,6.80
2023-04-23T23:49:32.522Z,5.80
2023-04-23T23:52:00.285Z,6.10
2023-04-23T23:54:28.043Z,6.20
2023-04-23T23:56:57.448Z,5.30
2023-04-23T23:59:26.019Z,5.60
